Time;durP1;ratioP1;P1;durP2;ratioP2;P2;SDS_P1;SDS_P2;PMS_P1;PMS_P2;Temp;Humidity;BMP_temperature;BMP_pressure;BME280_temperature;BME280_humidity;BME280_pressure;Samples;Min_cycle;Max_cycle;Signal;HPM_P1;HPM_P2
2021/04/19 00:02:13;;;;;;;9.78;7.47;;;;;;;5.29;75.13;100734.92;1712389;82;21158;-39
2021/04/19 00:04:41;;;;;;;9.98;7.30;;;;;;;5.25;75.38;100732.42;1723307;81;21221;-39
2021/04/19 00:07:38;;;;;;;9.20;6.97;;;;;;;5.20;75.66;100726.81;1710750;82;21221;-39
2021/04/19 00:10:09;;;;;;;8.18;6.85;;;;;;;5.17;75.96;100722.95;1598713;88;21245;-40
2021/04/19 00:12:40;;;;;;;9.85;7.78;;;;;;;5.17;76.28;100724.73;1592006;88;21800;-39
2021/04/19 00:15:10;;;;;;;9.73;7.62;;;;;;;5.17;76.52;100726.92;1598366;88;21613;-39
2021/04/19 00:17:39;;;;;;;9.48;7.05;;;;;;;5.19;76.70;100718.91;1612139;87;21185;-40
2021/04/19 00:20:09;;;;;;;7.50;6.33;;;;;;;5.26;76.77;100724.88;1593389;88;21202;-39
2021/04/19 00:22:38;;;;;;;8.65;6.33;;;;;;;5.30;76.78;100720.77;1579646;88;21213;-45
2021/04/19 00:25:08;;;;;;;9.58;7.67;;;;;;;5.33;76.83;100716.70;1584362;89;21202;-44
2021/04/19 00:27:36;;;;;;;8.05;6.65;;;;;;;5.34;76.90;100710.52;1614772;87;21192;-44
2021/04/19 00:30:05;;;;;;;10.28;7.62;;;;;;;5.33;77.04;100707.44;1617608;87;21197;-42
2021/04/19 00:32:33;;;;;;;8.48;7.47;;;;;;;5.30;77.18;100713.30;1605165;87;21209;-44
2021/04/19 00:35:03;;;;;;;8.63;7.47;;;;;;;5.27;77.33;100712.95;1595421;88;21248;-43
2021/04/19 00:37:31;;;;;;;7.65;6.22;;;;;;;5.20;77.40;100710.09;1611191;87;21707;-43
2021/04/19 00:39:58;;;;;;;8.60;6.97;;;;;;;5.14;77.54;100708.95;1608809;87;21266;-43
2021/04/19 00:42:26;;;;;;;9.98;7.10;;;;;;;5.10;77.69;100712.16;1586288;89;21365;-44
2021/04/19 00:44:54;;;;;;;6.85;6.15;;;;;;;5.09;77.85;100711.77;1594455;88;21698;-44
2021/04/19 00:47:21;;;;;;;12.00;7.17;;;;;;;5.12;77.93;100714.77;1601871;88;21280;-43
2021/04/19 00:49:49;;;;;;;8.03;6.35;;;;;;;5.17;77.78;100708.88;1593537;88;21191;-42
2021/04/19 00:52:16;;;;;;;7.80;6.65;;;;;;;5.21;77.51;100711.34;1593654;88;21273;-43
2021/04/19 00:54:44;;;;;;;8.35;6.90;;;;;;;5.27;77.24;100712.09;1592147;88;21353;-42
2021/04/19 00:57:14;;;;;;;8.15;6.60;;;;;;;5.30;77.00;100704.05;1599276;87;21333;-42
2021/04/19 00:59:41;;;;;;;7.53;5.85;;;;;;;5.33;76.82;100707.44;1615679;87;21181;-43
2021/04/19 01:02:09;;;;;;;7.50;6.20;;;;;;;5.37;76.74;100705.11;1592735;88;21194;-42
2021/04/19 01:04:38;;;;;;;8.58;7.00;;;;;;;5.40;76.64;100701.50;1570669;88;21294;-44
2021/04/19 01:07:07;;;;;;;8.13;7.00;;;;;;;5.43;76.50;100699.60;1597875;88;21231;-46
2021/04/19 01:09:34;;;;;;;10.78;7.40;;;;;;;5.45;76.38;100696.92;1595985;88;21241;-47
2021/04/19 01:12:03;;;;;;;8.08;6.22;;;;;;;5.45;76.24;100690.30;1618012;82;21187;-47
2021/04/19 01:14:31;;;;;;;9.20;7.47;;;;;;;5.46;76.14;100695.98;1713096;82;21230;-45
2021/04/19 01:16:59;;;;;;;11.22;8.10;;;;;;;5.45;76.07;100688.13;1730784;81;21161;-52
2021/04/19 01:19:28;;;;;;;10.08;7.75;;;;;;;5.41;76.08;100693.95;1701416;83;21426;-44
2021/04/19 01:21:56;;;;;;;11.05;8.50;;;;;;;5.34;76.24;100693.32;1714547;81;21177;-42
2021/04/19 01:24:23;;;;;;;11.53;8.73;;;;;;;5.31;76.40;100688.57;1708592;82;21210;-42
2021/04/19 01:26:51;;;;;;;12.85;9.68;;;;;;;5.30;76.59;100692.14;1725581;81;21192;-44
2021/04/19 01:29:19;;;;;;;14.80;10.45;;;;;;;5.26;76.77;100688.72;1731587;81;21183;-43
2021/04/19 01:31:49;;;;;;;13.98;9.83;;;;;;;5.13;77.14;100687.41;1688762;81;21177;-43
2021/04/19 01:34:17;;;;;;;16.87;11.78;;;;;;;5.13;77.14;100687.41;1707551;83;21170;-41
2021/04/19 01:36:47;;;;;;;13.65;10.75;;;;;;;5.11;77.54;100690.55;1726686;81;21625;-45
2021/04/19 01:39:17;;;;;;;12.98;8.70;;;;;;;5.13;77.59;100693.55;1710014;81;21133;-44
2021/04/19 01:41:45;;;;;;;15.43;9.58;;;;;;;5.17;77.54;100694.33;1696889;83;21200;-44
2021/04/19 01:44:13;;;;;;;14.53;9.60;;;;;;;5.21;77.37;100685.37;1717441;81;21149;-42
2021/04/19 01:46:41;;;;;;;11.22;9.10;;;;;;;5.25;77.10;100688.33;1695265;81;21135;-44
2021/04/19 01:49:16;;;;;;;14.50;9.23;;;;;;;5.18;76.96;100675.75;1724275;81;21145;-43
2021/04/19 01:51:50;;;;;;;13.70;9.03;;;;;;;5.14;77.00;100674.14;1806800;78;22935;-43
2021/04/19 01:54:17;;;;;;;13.48;9.38;;;;;;;5.04;77.06;100683.30;1773854;79;21148;-41
2021/04/19 01:56:45;;;;;;;11.90;9.38;;;;;;;4.99;77.26;100681.26;1777389;79;21558;-44
2021/04/19 01:59:13;;;;;;;11.60;8.13;;;;;;;5.00;77.17;100684.30;1780372;79;21523;-42
2021/04/19 02:02:09;;;;;;;11.88;9.58;;;;;;;5.04;76.94;100683.73;1726151;80;21140;-42
2021/04/19 02:05:13;;;;;;;11.28;9.35;;;;;;;5.06;76.65;100691.16;1783576;79;21146;-46
2021/04/19 02:08:12;;;;;;;12.58;9.58;;;;;;;5.07;76.46;100689.80;1775122;79;21279;-47
2021/04/19 02:10:47;;;;;;;12.47;10.40;;;;;;;5.07;76.25;100686.30;1716171;81;21163;-43
2021/04/19 02:13:19;;;;;;;12.73;9.85;;;;;;;5.06;76.06;100688.52;1706305;82;21173;-46
2021/04/19 02:16:02;;;;;;;13.03;10.32;;;;;;;5.04;75.93;100685.94;1688730;83;21155;-43
2021/04/19 02:18:44;;;;;;;13.10;9.15;;;;;;;5.04;75.83;100691.23;1740786;81;21136;-43
2021/04/19 02:21:23;;;;;;;13.05;9.00;;;;;;;5.04;75.70;100683.73;1722396;81;21169;-47
2021/04/19 02:24:01;;;;;;;12.18;10.25;;;;;;;5.03;75.60;100682.02;1698578;81;21282;-44
2021/04/19 02:26:32;;;;;;;14.07;10.43;;;;;;;4.97;75.38;100682.62;1699636;83;21550;-46
2021/04/19 02:29:08;;;;;;;;;;;;;;;4.92;75.27;100681.91;1697909;83;21647;-40
2021/04/19 02:31:44;;;;;;;15.85;10.35;;;;;;;4.91;75.26;100679.30;1684525;83;20190;-40
2021/04/19 02:34:16;;;;;;;13.45;11.83;;;;;;;4.91;75.23;100684.15;1679243;84;21303;-43
2021/04/19 02:36:45;;;;;;;15.28;12.95;;;;;;;4.90;75.25;100685.05;1720544;82;21569;-44
2021/04/19 02:39:14;;;;;;;16.42;13.68;;;;;;;4.90;75.30;100685.05;1691384;83;21622;-45
2021/04/19 02:41:42;;;;;;;15.13;13.50;;;;;;;4.91;75.36;100689.86;1694315;83;21128;-40
2021/04/19 02:44:10;;;;;;;16.50;12.90;;;;;;;4.90;75.40;100686.83;1718830;81;21142;-42
2021/04/19 02:46:40;;;;;;;15.32;13.70;;;;;;;4.90;75.35;100691.66;1722444;81;21146;-43
2021/04/19 02:49:07;;;;;;;14.43;12.93;;;;;;;4.90;75.27;100689.47;1718896;81;21562;-44
2021/04/19 02:51:36;;;;;;;15.00;11.93;;;;;;;4.89;75.05;100687.72;1712044;81;21177;-43
2021/04/19 02:54:04;;;;;;;15.38;12.25;;;;;;;4.89;74.93;100685.08;1720253;81;21146;-43
2021/04/19 02:56:36;;;;;;;14.90;11.68;;;;;;;4.89;74.84;100692.58;1746319;80;21220;-45
2021/04/19 02:59:09;;;;;;;13.40;10.28;;;;;;;4.88;74.66;100689.50;1719139;81;21140;-41
2021/04/19 03:01:40;;;;;;;12.95;9.25;;;;;;;4.87;74.58;100693.08;1744634;80;21175;-44
2021/04/19 03:04:14;;;;;;;12.00;9.53;;;;;;;4.86;74.55;100693.97;1744771;81;21154;-42
2021/04/19 03:06:51;;;;;;;13.58;10.32;;;;;;;4.85;74.46;100697.53;1749135;81;21563;-41
2021/04/19 03:09:22;;;;;;;12.15;10.15;;;;;;;4.83;74.35;100694.53;1713925;82;21382;-42
2021/04/19 03:11:54;;;;;;;21.73;16.93;;;;;;;4.79;74.23;100689.81;1745255;81;21146;-43
2021/04/19 03:14:25;;;;;;;16.80;11.50;;;;;;;4.75;74.16;100689.49;1748208;81;21114;-42
2021/04/19 03:16:59;;;;;;;14.40;10.13;;;;;;;4.72;74.10;100696.20;1747494;81;21143;-41
2021/04/19 03:19:29;;;;;;;12.07;10.38;;;;;;;4.71;74.14;100690.48;1748141;80;21192;-45
2021/04/19 03:21:57;;;;;;;12.88;9.43;;;;;;;4.70;74.19;100695.38;1709864;82;21201;-47
2021/04/19 03:24:26;;;;;;;12.15;9.40;;;;;;;4.69;74.20;100688.37;1719494;81;21170;-45
2021/04/19 03:26:57;;;;;;;13.35;9.73;;;;;;;4.70;74.25;100692.73;1742730;81;21134;-43
2021/04/19 03:29:26;;;;;;;11.18;9.43;;;;;;;4.68;74.20;100691.91;1724123;81;21139;-44
2021/04/19 03:31:57;;;;;;;12.23;9.68;;;;;;;4.64;74.21;100699.54;1745239;81;21134;-46
2021/04/19 03:34:29;;;;;;;11.78;9.68;;;;;;;4.62;74.33;100702.22;1744734;80;21161;-45
2021/04/19 03:37:06;;;;;;;12.03;9.78;;;;;;;4.62;74.41;100698.72;1752412;81;21964;-45
2021/04/19 03:39:35;;;;;;;11.80;10.58;;;;;;;4.64;74.53;100700.86;1745652;81;21125;-44
2021/04/19 03:42:03;;;;;;;11.08;9.05;;;;;;;4.66;74.66;100702.55;1747659;81;21153;-41
2021/04/19 03:44:34;;;;;;;15.32;10.98;;;;;;;4.66;74.78;100700.33;1745462;81;21159;-45
2021/04/19 03:47:03;;;;;;;14.35;11.83;;;;;;;4.64;74.94;100694.26;1746747;80;21436;-44
2021/04/19 03:49:54;;;;;;;17.98;13.88;;;;;;;4.61;75.21;100698.28;1741966;81;21148;-45
2021/04/19 03:52:24;;;;;;;;;;;;;;;4.63;75.57;100697.79;1751300;81;21161;-45
2021/04/19 03:54:52;;;;;;;20.12;16.50;;;;;;;4.66;75.82;100704.30;1748829;81;20162;-44
2021/04/19 03:57:23;;;;;;;18.73;16.62;;;;;;;4.70;76.07;100703.30;1730138;81;21156;-43
2021/04/19 04:00:06;;;;;;;19.45;16.75;;;;;;;4.73;76.31;100701.87;1746974;81;21148;-45
2021/04/19 04:02:50;;;;;;;20.75;15.68;;;;;;;4.75;76.44;100704.02;1742060;80;21152;-44
2021/04/19 04:05:21;;;;;;;16.87;14.80;;;;;;;4.74;76.58;100709.77;1749300;81;21104;-46
2021/04/19 04:08:07;;;;;;;16.45;13.85;;;;;;;4.72;76.76;100700.16;1747149;80;21106;-44
2021/04/19 04:10:35;;;;;;;15.70;14.05;;;;;;;4.74;76.94;100701.84;1735771;81;21114;-44
2021/04/19 04:13:03;;;;;;;16.95;13.90;;;;;;;4.74;77.14;100701.84;1746638;81;22296;-53
2021/04/19 04:16:13;;;;;;;17.95;13.03;;;;;;;4.74;77.36;100701.84;1716967;81;21114;-50
2021/04/19 04:19:03;;;;;;;18.55;14.35;;;;;;;4.79;77.70;100703.03;1804680;78;23053;-44
2021/04/19 04:21:33;;;;;;;18.25;13.95;;;;;;;4.77;77.93;100701.74;1782540;79;21138;-45
2021/04/19 04:24:04;;;;;;;18.07;14.38;;;;;;;4.80;78.14;100700.78;1773787;79;21173;-45
2021/04/19 04:26:32;;;;;;;19.30;15.68;;;;;;;4.83;78.34;100695.39;1756499;80;21163;-44
2021/04/19 04:29:00;;;;;;;16.90;14.10;;;;;;;4.87;78.58;100701.00;1728848;80;21721;-45
2021/04/19 04:31:30;;;;;;;19.85;14.40;;;;;;;;;;1728591;80;21732;-44
2021/04/19 04:33:59;;;;;;;25.32;16.30;;;;;;;4.94;79.04;100693.30;1751854;80;21102;-43
2021/04/19 04:36:28;;;;;;;23.57;14.33;;;;;;;4.99;79.40;100691.37;1727174;80;21536;-58
2021/04/19 04:38:57;;;;;;;19.45;13.78;;;;;;;5.04;79.67;100698.27;1755493;80;21146;-44
2021/04/19 04:41:33;;;;;;;19.45;15.43;;;;;;;5.11;79.97;100695.38;1776365;77;28148;-45
2021/04/19 04:44:01;;;;;;;18.57;15.40;;;;;;;5.16;80.19;100707.13;1744554;81;21145;-46
2021/04/19 04:47:00;;;;;;;19.00;14.83;;;;;;;5.31;80.52;100703.98;1692711;82;21161;-43
2021/04/19 04:49:32;;;;;;;20.17;15.20;;;;;;;5.39;80.76;100704.61;1738689;81;21149;-45
2021/04/19 04:52:01;;;;;;;17.50;13.32;;;;;;;5.48;80.98;100701.23;1705200;81;21145;-39
2021/04/19 04:54:30;;;;;;;15.95;13.40;;;;;;;5.55;81.12;100700.98;1727311;81;21121;-46
2021/04/19 04:57:01;;;;;;;18.70;14.83;;;;;;;5.59;81.33;100705.26;1750626;80;21124;-44
2021/04/19 04:59:29;;;;;;;18.30;14.25;;;;;;;5.62;81.62;100702.97;1719733;81;21200;-45
2021/04/19 05:01:57;;;;;;;13.98;12.13;;;;;;;5.66;81.85;100698.42;1702758;81;21560;-45
2021/04/19 05:04:27;;;;;;;13.40;11.45;;;;;;;5.71;81.95;100700.44;1730269;81;21433;-43
2021/04/19 05:06:55;;;;;;;13.65;11.93;;;;;;;5.75;82.08;100690.17;1737098;81;21167;-44
2021/04/19 05:09:22;;;;;;;13.85;11.35;;;;;;;5.77;82.34;100690.52;1707843;81;21129;-43
2021/04/19 05:11:50;;;;;;;14.50;12.93;;;;;;;5.82;82.66;100687.25;1723231;81;21177;-46
2021/04/19 05:14:17;;;;;;;14.75;12.40;;;;;;;5.86;83.06;100696.79;1724477;81;21169;-46
2021/04/19 05:16:45;;;;;;;16.57;13.38;;;;;;;5.92;83.20;100693.52;1645033;81;21657;-49
2021/04/19 05:19:13;;;;;;;13.90;11.38;;;;;;;6.00;83.42;100695.02;1730275;81;21742;-47
2021/04/19 05:21:41;;;;;;;12.70;11.35;;;;;;;6.09;83.55;100696.45;1730524;81;21157;-45
2021/04/19 05:24:09;;;;;;;14.70;11.38;;;;;;;6.18;83.57;100693.48;1722034;81;21168;-45
2021/04/19 05:26:36;;;;;;;16.37;12.80;;;;;;;6.29;83.64;100691.75;1706696;82;21165;-42
2021/04/19 05:29:04;;;;;;;18.98;12.90;;;;;;;6.49;84.61;100687.03;1706536;82;21576;-42
2021/04/19 05:31:32;;;;;;;16.77;12.53;;;;;;;6.87;87.22;100688.17;1721414;81;21128;-47
2021/04/19 05:34:00;;;;;;;13.88;11.40;;;;;;;7.17;87.35;100681.70;1717284;81;21153;-42
2021/04/19 05:36:28;;;;;;;13.13;11.38;;;;;;;7.62;86.45;100676.72;1719552;81;21593;-42
2021/04/19 05:38:56;;;;;;;15.75;12.25;;;;;;;7.62;86.45;100676.72;1658874;82;21171;-42
2021/04/19 05:41:24;;;;;;;14.93;11.18;;;;;;;7.80;85.72;100672.78;1723520;81;21174;-42
2021/04/19 05:43:51;;;;;;;12.40;9.60;;;;;;;7.96;84.98;100674.75;1708713;82;21124;-43
2021/04/19 05:46:19;;;;;;;14.07;10.53;;;;;;;8.12;84.66;100672.30;1716423;82;21160;-42
2021/04/19 05:48:47;;;;;;;12.68;9.98;;;;;;;8.26;83.76;100669.85;1691640;83;21151;-42
2021/04/19 05:51:28;;;;;;;12.18;9.88;;;;;;;8.39;82.61;100667.48;1716602;82;21157;-45
2021/04/19 05:53:56;;;;;;;12.75;9.80;;;;;;;8.49;81.18;100667.96;1717358;82;21161;-44
2021/04/19 05:56:53;;;;;;;12.37;9.93;;;;;;;8.55;79.16;100670.34;1724313;82;21161;-42
2021/04/19 06:00:46;;;;;;;10.63;8.40;;;;;;;8.53;76.69;100673.06;1540807;91;21169;-46
2021/04/19 06:03:29;;;;;;;8.65;7.45;;;;;;;8.57;74.88;100675.13;1757945;79;23743;-40
2021/04/19 06:06:15;;;;;;;8.25;7.00;;;;;;;8.54;73.55;100673.48;1737596;80;21133;-42
2021/04/19 06:09:01;;;;;;;7.92;7.10;;;;;;;8.56;73.58;100662.76;1717111;82;21161;-41
2021/04/19 06:11:55;;;;;;;7.90;5.72;;;;;;;8.61;73.81;100664.73;1733336;80;21157;-40
2021/04/19 06:14:51;;;;;;;8.38;5.65;;;;;;;8.79;72.94;100661.66;1804246;77;23061;-42
2021/04/19 06:17:21;;;;;;;8.00;6.58;;;;;;;8.81;72.00;100652.66;1775177;79;21126;-42
2021/04/19 06:19:49;;;;;;;8.00;6.12;;;;;;;8.90;71.61;100655.84;1768436;79;21239;-46
2021/04/19 06:22:17;;;;;;;8.93;6.42;;;;;;;8.95;71.83;100649.35;1771734;79;21177;-40
2021/04/19 06:24:50;;;;;;;10.82;7.80;;;;;;;9.01;72.01;100648.19;1768151;79;21182;-47
2021/04/19 06:27:22;;;;;;;10.30;7.58;;;;;;;9.03;71.75;100644.51;1770580;79;21584;-44
2021/04/19 06:29:51;;;;;;;8.00;6.67;;;;;;;9.04;72.15;100646.69;1778321;78;21155;-43
2021/04/19 06:32:22;;;;;;;9.25;5.87;;;;;;;9.09;72.95;100645.52;1774774;79;21151;-43
2021/04/19 06:34:57;;;;;;;;;;;;;;;9.17;72.75;100650.48;1764982;79;22011;-46
2021/04/19 06:37:51;;;;;;;7.70;6.12;;;;;;;9.26;72.10;100646.49;1738525;80;20168;-44
2021/04/19 06:40:19;;;;;;;9.90;6.53;;;;;;;9.33;70.04;100648.39;1751419;79;21670;-48
2021/04/19 06:42:48;;;;;;;8.68;6.78;;;;;;;9.37;69.94;100636.63;1752479;78;21165;-40
2021/04/19 06:45:16;;;;;;;9.88;7.55;;;;;;;9.41;69.63;100640.86;1758319;80;21299;-44
2021/04/19 06:47:43;;;;;;;9.98;7.75;;;;;;;9.42;69.27;100638.11;1747115;80;22182;-40
2021/04/19 06:50:12;;;;;;;8.13;6.72;;;;;;;9.45;69.86;100643.73;1741768;80;21118;-41
2021/04/19 06:52:46;;;;;;;7.45;5.60;;;;;;;9.50;70.26;100632.42;1747246;80;21744;-42
2021/04/19 06:55:11;;;;;;;7.87;5.67;;;;;;;9.57;69.22;100635.12;1754471;80;21589;-41
2021/04/19 06:57:41;;;;;;;6.95;6.25;;;;;;;9.60;68.73;100634.99;1755763;80;21488;-39
2021/04/19 07:00:10;;;;;;;10.58;8.05;;;;;;;9.64;68.67;100633.87;1749156;79;21158;-39
2021/04/19 07:02:52;;;;;;;6.70;5.92;;;;;;;9.69;68.35;100629.64;1731563;80;21185;-42
2021/04/19 07:05:29;;;;;;;8.98;7.03;;;;;;;9.71;68.67;100631.77;1746668;79;21146;-41
2021/04/19 07:08:06;;;;;;;7.60;6.55;;;;;;;9.80;68.50;100633.06;1754199;80;21165;-42
2021/04/19 07:10:34;;;;;;;8.33;7.33;;;;;;;9.86;68.49;100630.09;1754119;80;21133;-43
2021/04/19 07:13:09;;;;;;;9.45;6.70;;;;;;;9.91;68.54;100628.90;1760407;80;21202;-43
2021/04/19 07:15:39;;;;;;;8.38;6.72;;;;;;;9.96;68.44;100624.66;1753821;80;21149;-43
2021/04/19 07:18:07;;;;;;;9.40;6.92;;;;;;;10.02;68.39;100630.13;1743446;80;21279;-43
2021/04/19 07:20:35;;;;;;;7.70;6.17;;;;;;;10.08;68.30;100628.00;1704317;82;21126;-43
2021/04/19 07:23:04;;;;;;;10.13;6.65;;;;;;;10.14;67.98;100619.66;1760364;80;21593;-44
2021/04/19 07:25:32;;;;;;;10.53;6.67;;;;;;;10.22;67.64;100621.91;1690958;82;21152;-42
2021/04/19 07:28:00;;;;;;;7.87;6.08;;;;;;;10.28;67.02;100614.95;1749305;80;21153;-43
2021/04/19 07:30:28;;;;;;;10.50;8.28;;;;;;;10.35;66.84;100615.45;1752080;79;21162;-45
2021/04/19 07:32:56;;;;;;;8.73;7.40;;;;;;;10.38;66.45;100613.50;1738580;80;21403;-42
2021/04/19 07:35:30;;;;;;;8.35;6.70;;;;;;;10.43;66.51;100609.70;1749509;79;21159;-42
2021/04/19 07:38:04;;;;;;;7.70;6.40;;;;;;;10.49;66.88;100604.05;1724771;80;21185;-43
2021/04/19 07:40:35;;;;;;;10.55;6.22;;;;;;;10.56;65.99;100608.95;1714298;82;21178;-44
2021/04/19 07:43:24;;;;;;;9.03;6.83;;;;;;;10.69;66.35;100603.77;1791820;78;22913;-43
2021/04/19 07:46:08;;;;;;;10.18;5.90;;;;;;;10.73;66.23;100599.96;1780148;78;21165;-40
2021/04/19 07:48:47;;;;;;;6.65;5.70;;;;;;;10.81;65.46;100602.22;1774231;78;21114;-42
2021/04/19 07:51:32;;;;;;;8.35;5.62;;;;;;;10.87;65.40;100603.19;1777671;78;21161;-44
2021/04/19 07:54:20;;;;;;;7.97;6.72;;;;;;;10.92;64.77;100595.78;1773443;78;21437;-43
2021/04/19 07:59:29;;;;;;;6.33;5.37;;;;;;;11.10;64.11;100594.32;1786927;78;22861;-45
2021/04/19 08:02:02;;;;;;;7.25;5.75;;;;;;;11.11;64.20;100585.35;1765385;79;21637;-43
2021/04/19 08:04:31;;;;;;;7.00;5.58;;;;;;;11.19;64.39;100587.12;1761884;80;21121;-43
2021/04/19 08:06:58;;;;;;;7.58;6.03;;;;;;;11.30;63.63;100582.47;1759979;80;21149;-46
2021/04/19 08:09:29;;;;;;;7.12;6.10;;;;;;;11.41;61.77;100579.51;1766177;80;21153;-43
2021/04/19 08:11:59;;;;;;;5.50;4.90;;;;;;;11.50;62.58;100582.12;1760725;79;21157;-43
2021/04/19 08:14:30;;;;;;;5.87;4.58;;;;;;;11.61;63.53;100587.65;1740913;79;21145;-42
2021/04/19 08:17:08;;;;;;;;;;;;;;;11.73;63.34;100579.37;1766494;79;22114;-47
2021/04/19 08:19:39;;;;;;;6.25;4.00;;;;;;;11.82;60.88;100576.14;1758349;80;20182;-44
2021/04/19 08:22:29;;;;;;;;;;;;;;;11.85;60.55;100579.95;1762305;79;21146;-43
2021/04/19 08:25:17;;;;;;;4.67;3.30;;;;;;;11.86;60.16;100575.45;1745173;80;20536;-43
2021/04/19 08:28:00;;;;;;;4.10;3.40;;;;;;;11.88;59.82;100575.78;1741275;80;21185;-44
2021/04/19 08:30:28;;;;;;;6.10;3.95;;;;;;;11.93;59.39;100566.63;1738331;80;21149;-43
2021/04/19 08:32:59;;;;;;;4.97;3.02;;;;;;;12.00;59.92;100567.97;1735571;80;21637;-44
2021/04/19 08:35:28;;;;;;;4.35;3.30;;;;;;;12.09;58.33;100573.56;1732987;80;21716;-43
2021/04/19 08:37:58;;;;;;;4.92;3.70;;;;;;;12.18;59.09;100574.80;1739153;80;21141;-46
2021/04/19 08:40:27;;;;;;;4.87;4.07;;;;;;;12.27;59.06;100567.55;1735926;80;21574;-43
2021/04/19 08:42:56;;;;;;;3.92;3.30;;;;;;;12.38;58.10;100566.00;1737292;80;21145;-42
2021/04/19 08:45:27;;;;;;;4.35;3.50;;;;;;;12.46;57.62;100572.55;1732007;80;21152;-46
2021/04/19 08:47:56;;;;;;;5.87;3.33;;;;;;;12.56;58.21;100562.11;1736147;80;21117;-46
2021/04/19 08:50:26;;;;;;;4.10;3.55;;;;;;;12.69;57.52;100562.16;1734289;80;21160;-46
2021/04/19 08:52:57;;;;;;;3.37;2.80;;;;;;;12.83;57.77;100560.78;1739796;80;21145;-45
2021/04/19 08:55:25;;;;;;;5.00;3.20;;;;;;;12.97;57.93;100563.86;1735473;80;21589;-44
2021/04/19 08:57:59;;;;;;;6.28;3.75;;;;;;;13.09;57.04;100556.83;1733866;80;21605;-44
2021/04/19 09:00:28;;;;;;;6.12;4.22;;;;;;;13.21;56.81;100560.86;1725391;81;21550;-45
2021/04/19 09:03:03;;;;;;;3.50;3.08;;;;;;;13.31;56.46;100553.09;1722406;81;21617;-46
2021/04/19 09:05:32;;;;;;;4.37;3.27;;;;;;;13.42;55.91;100561.72;1710855;82;21287;-45
2021/04/19 09:08:06;;;;;;;4.72;3.30;;;;;;;13.50;55.76;100570.08;1719991;81;21717;-44
2021/04/19 09:11:05;;;;;;;5.67;3.33;;;;;;;13.56;55.15;100566.14;1726955;81;21134;-46
2021/04/19 09:13:35;;;;;;;3.58;3.17;;;;;;;13.58;53.61;100561.05;1726822;81;21141;-43
2021/04/19 09:16:22;;;;;;;3.58;2.55;;;;;;;13.56;53.50;100567.48;1728076;81;22102;-43
2021/04/19 09:18:59;;;;;;;4.35;3.42;;;;;;;13.52;53.00;100561.95;1724794;81;21676;-46
2021/04/19 09:21:49;;;;;;;3.12;2.58;;;;;;;13.51;53.43;100562.92;1724190;81;21153;-45
2021/04/19 09:24:18;;;;;;;5.58;2.80;;;;;;;13.54;52.00;100556.86;1724980;81;21161;-47
2021/04/19 09:26:52;;;;;;;3.17;2.87;;;;;;;13.60;52.30;100555.08;1728931;81;21158;-45
2021/04/19 09:29:41;;;;;;;5.67;3.55;;;;;;;13.69;52.51;100550.06;1720688;81;21142;-50
2021/04/19 09:32:22;;;;;;;3.95;3.50;;;;;;;13.78;53.05;100554.30;1724100;81;21141;-46
2021/04/19 09:35:03;;;;;;;6.05;3.08;;;;;;;13.87;52.86;100547.41;1725496;81;21468;-46
2021/04/19 09:37:43;;;;;;;4.80;2.52;;;;;;;13.98;53.58;100554.19;1718110;81;21603;-44
2021/04/19 09:40:16;;;;;;;3.45;2.90;;;;;;;14.09;53.16;100548.08;1725038;81;21156;-49
2021/04/19 09:43:07;;;;;;;3.20;2.40;;;;;;;14.18;52.83;100555.44;1711050;81;21279;-46
2021/04/19 09:45:47;;;;;;;3.40;2.35;;;;;;;14.25;51.67;100551.84;1733247;81;21182;-45
2021/04/19 09:48:30;;;;;;;;;;;;;;;14.31;52.43;100547.35;1728638;81;21157;-43
2021/04/19 09:51:19;;;;;;;4.20;2.62;;;;;;;14.39;52.07;100557.52;1726213;81;20181;-44
2021/04/19 09:53:56;;;;;;;2.98;2.67;;;;;;;14.43;52.84;100559.87;1725931;81;21118;-44
2021/04/19 09:56:29;;;;;;;3.15;2.30;;;;;;;14.45;51.45;100555.75;1723343;81;21533;-43
2021/04/19 09:58:57;;;;;;;3.90;2.40;;;;;;;14.43;50.91;100560.36;1730701;81;21121;-43
2021/04/19 10:01:27;;;;;;;3.85;2.95;;;;;;;14.37;50.94;100561.67;1723610;81;21149;-44
2021/04/19 10:03:55;;;;;;;2.47;2.17;;;;;;;14.32;52.21;100563.84;1722823;81;21154;-43
2021/04/19 10:06:42;;;;;;;3.33;2.65;;;;;;;14.28;52.25;100562.34;1730743;81;21530;-43
2021/04/19 10:09:13;;;;;;;3.62;2.42;;;;;;;14.27;52.13;100568.19;1721699;81;21585;-50
2021/04/19 10:11:46;;;;;;;4.78;3.02;;;;;;;14.26;52.35;100569.17;1719202;82;21399;-43
2021/04/19 10:14:16;;;;;;;3.27;2.70;;;;;;;14.26;52.36;100574.53;1723587;81;21190;-40
2021/04/19 10:16:50;;;;;;;4.03;3.02;;;;;;;14.27;52.94;100570.02;1725268;81;21150;-44
2021/04/19 10:19:27;;;;;;;3.50;2.95;;;;;;;14.27;51.31;100570.02;1720100;81;21161;-43
2021/04/19 10:22:09;;;;;;;4.65;3.67;;;;;;;14.20;51.21;100574.95;1725083;81;21676;-44
2021/04/19 10:24:58;;;;;;;3.47;2.72;;;;;;;14.09;51.34;100578.06;1723988;81;21165;-42
2021/04/19 10:27:27;;;;;;;3.77;2.83;;;;;;;13.95;52.08;100573.17;1718711;81;21149;-41
2021/04/19 10:30:15;;;;;;;4.10;2.70;;;;;;;13.92;52.52;100572.55;1722734;81;21142;-43
2021/04/19 10:32:44;;;;;;;3.47;2.62;;;;;;;13.91;52.83;100575.72;1721256;81;21678;-45
2021/04/19 10:35:39;;;;;;;3.98;2.80;;;;;;;13.87;52.25;100573.36;1719672;81;21153;-42
2021/04/19 10:38:08;;;;;;;5.35;2.47;;;;;;;13.80;52.55;100574.27;1722827;81;21164;-45
2021/04/19 10:40:36;;;;;;;4.58;2.52;;;;;;;13.77;52.63;100578.50;1728364;81;21130;-45
2021/04/19 10:43:11;;;;;;;3.08;2.30;;;;;;;13.76;52.46;100575.47;1720849;81;21154;-45
2021/04/19 10:45:42;;;;;;;3.98;2.72;;;;;;;13.74;51.69;100581.41;1719560;81;21145;-45
2021/04/19 10:48:27;;;;;;;3.90;2.90;;;;;;;13.73;50.85;100585.03;1727744;81;21145;-45
2021/04/19 10:50:59;;;;;;;4.00;3.33;;;;;;;13.67;51.37;100586.33;1727891;81;21150;-45
2021/04/19 10:53:34;;;;;;;4.00;2.92;;;;;;;13.64;52.17;100582.53;1720388;81;21146;-45
2021/04/19 10:56:04;;;;;;;5.45;3.50;;;;;;;13.62;52.21;100585.30;1718466;81;21149;-45
2021/04/19 10:58:33;;;;;;;3.37;2.87;;;;;;;13.58;52.58;100594.54;1726674;81;21133;-43
2021/04/19 11:01:01;;;;;;;3.33;3.00;;;;;;;13.56;52.93;100585.74;1721513;82;21149;-45
2021/04/19 11:03:36;;;;;;;5.05;3.05;;;;;;;13.58;51.91;100584.28;1723817;81;21461;-44
2021/04/19 11:06:07;;;;;;;4.10;3.10;;;;;;;13.56;51.72;100588.42;1719736;82;21118;-43
2021/04/19 11:08:58;;;;;;;4.53;2.75;;;;;;;13.56;51.21;100586.23;1724840;81;21568;-47
2021/04/19 11:11:36;;;;;;;4.85;3.75;;;;;;;13.58;51.74;100591.86;1725597;81;21138;-43
2021/04/19 11:14:21;;;;;;;5.28;4.05;;;;;;;13.58;52.69;100587.84;1725138;81;21153;-42
2021/04/19 11:16:59;;;;;;;7.50;3.62;;;;;;;13.58;52.39;100589.18;1724937;81;21153;-43
2021/04/19 11:19:43;;;;;;;4.33;3.45;;;;;;;13.57;52.35;100583.91;1722594;81;21114;-44
2021/04/19 11:22:30;;;;;;;5.85;3.70;;;;;;;13.54;52.73;100586.81;1724620;81;21691;-43
2021/04/19 11:25:22;;;;;;;5.28;3.77;;;;;;;13.52;52.65;100586.91;1720820;81;21729;-44
2021/04/19 11:28:12;;;;;;;4.00;3.35;;;;;;;13.50;52.79;100582.13;1688910;83;21157;-42
2021/04/19 11:30:40;;;;;;;4.67;3.43;;;;;;;13.49;52.40;100575.07;1666223;83;21144;-42
2021/04/19 11:33:18;;;;;;;3.10;2.70;;;;;;;13.54;53.58;100578.29;1769293;79;23087;-43
2021/04/19 11:35:49;;;;;;;6.25;3.87;;;;;;;13.57;53.52;100576.73;1736791;82;21602;-43
2021/04/19 11:38:21;;;;;;;5.12;3.12;;;;;;;13.63;52.80;100571.42;1735046;80;21161;-43
2021/04/19 11:40:50;;;;;;;5.17;3.45;;;;;;;13.63;52.28;100570.08;1739501;80;21141;-42
2021/04/19 11:43:27;;;;;;;3.67;2.77;;;;;;;13.64;52.88;100571.33;1740277;80;21646;-43
2021/04/19 11:46:01;;;;;;;4.12;2.83;;;;;;;13.69;51.60;100571.01;1740031;80;21105;-42
2021/04/19 11:48:29;;;;;;;3.60;2.35;;;;;;;13.73;52.05;100573.83;1739406;80;21174;-42
2021/04/19 11:50:58;;;;;;;3.47;2.95;;;;;;;13.74;50.45;100566.18;1736132;80;21554;-42
2021/04/19 11:53:28;;;;;;;3.40;2.60;;;;;;;13.73;51.28;100563.59;1739766;80;21185;-41
2021/04/19 11:55:57;;;;;;;3.47;2.02;;;;;;;13.80;51.30;100564.88;1747567;80;21782;-42
2021/04/19 11:58:27;;;;;;;4.60;2.50;;;;;;;13.84;50.20;100559.20;1737634;80;21923;-45
2021/04/19 12:00:55;;;;;;;3.77;2.70;;;;;;;13.86;51.18;100557.77;1736255;80;21145;-44